Flight Track Log - Related Links

Times and Time Zones

All times are in EDT time to prevent confusion due to time zone crossing. See the F-GSPR flight status page for this flight to view local times or setup timezone preferences in your user account.

Time Position Orientation Groundspeed Altitude Reporting Facility
EDT Latitude Longitude Course Direction KTS MPH feet Rate Location/Type
Sat 07:58:00 AM 49.2076 3.0634 60° Northeast  Level Estimated
Sat 07:59:00 AM 49.2720 3.2354 60° Northeast  Level Estimated
Sat 08:00:00 AM 49.3362 3.4079 60° Northeast  Level Estimated
Sat 08:01:00 AM 49.4002 3.5808 60° Northeast  Level Estimated
Sat 08:02:00 AM 49.4638 3.7542 60° Northeast  Level Estimated
Sat 08:03:00 AM 49.5272 3.9281 61° Northeast  Level Estimated
Sat 08:04:00 AM 49.5904 4.1023 61° Northeast  Level Estimated
Sat 08:05:00 AM 49.6533 4.2771 61° Northeast  Level Estimated
Sat 08:06:00 AM 49.7159 4.4522 61° Northeast  Level Estimated
Sat 08:07:00 AM 49.7782 4.6279 61° Northeast  Level Estimated
Sat 08:08:00 AM 49.8403 4.8040 61° Northeast  Level Estimated
Sat 08:09:00 AM 49.9021 4.9805 61° Northeast  Level Estimated
Sat 08:10:00 AM 49.9637 5.1575 62° Northeast  Level Estimated
Sat 08:11:37 AM 24.2360 111.2430 60° Northeast 476 548 22,600  Level FlightAware ADS-B
Sat 08:12:37 AM 24.1380 111.3470 60° Northeast 478 550 22,600  Level FlightAware ADS-B
Sat 08:13:17 AM 24.0700 111.4210 57° Northeast 478 550 22,600  Level FlightAware ADS-B
Sat 08:14:12 AM 23.9840 111.5140 57° Northeast 480 552 22,600 433 Level FlightAware ADS-B
Sat 08:16:17 AM 23.7840 111.7280 60° Northeast 487 560 23,900 918 Climbing FlightAware ADS-B
Sat 08:17:02 AM 23.7150 111.8020 60° Northeast 499 574 25,200 -11,897 Climbing FlightAware ADS-B
Sat 08:18:13 AM 49.0233 2.5637 85° East 170 196 900 -16,465 Descending FlightAware ADS-B
Sat 08:18:28 AM 49.0243 2.5818 85° East 174 200 1,600 2,600 Climbing FlightAware ADS-B
Sat 08:18:43 AM 49.0252 2.6002 86° East 172 198 2,200 2,222 Climbing FlightAware ADS-B
Sat 08:18:55 AM 49.0259 2.6147 86° East 175 201 2,600 66,500 Climbing FlightAware ADS-B
Sat 08:19:07 AM 23.4990 112.0330 60° Northeast 526 605 28,800 1,667 Climbing FlightAware ADS-B
Sat 08:19:13 AM 49.0271 2.6361 322° Northwest 179 206 3,100 -72,000 Descending FlightAware ADS-B
Sat 08:19:28 AM 49.0282 2.6551 85° East 180 207 3,600 1,800 Climbing FlightAware ADS-B
Sat 08:19:43 AM 49.0292 2.6752 86° East 188 216 4,000 1,161 Climbing FlightAware ADS-B
Sat 08:19:59 AM 49.0306 2.6971 84° East 208 239 4,200 750 Climbing FlightAware ADS-B
Sat 08:20:15 AM 49.0321 2.7228 85° East 230 265 4,400 1,091 Climbing FlightAware ADS-B
Sat 08:20:32 AM 49.0335 2.7510 86° East 246 283 4,800 1,636 Climbing FlightAware ADS-B
Sat 08:20:48 AM 49.0348 2.7780 86° East 256 295 5,300 2,129 Climbing FlightAware ADS-B
Sat 08:21:03 AM 49.0361 2.8051 86° East 259 298 5,900 2,600 Climbing FlightAware ADS-B
Sat 08:21:18 AM 49.0375 2.8329 86° East 261 300 6,600 2,600 Climbing FlightAware ADS-B
Sat 08:21:33 AM 49.0388 2.8606 86° East 264 304 7,200 2,625 Climbing FlightAware ADS-B
Sat 08:21:50 AM 49.0405 2.8923 85° East 266 306 8,000 69,158 Climbing FlightAware ADS-B
Sat 08:21:52 AM 23.2120 112.3370 61° Northeast 529 609 29,100 2,000 Climbing FlightAware ADS-B
Sat 08:22:05 AM 49.0417 2.9205 322° Northwest 269 310 8,500 -41,172 Descending FlightAware ADS-B
Sat 08:22:21 AM 49.0431 2.9508 86° East 272 313 9,200 2,516 Climbing FlightAware ADS-B
Sat 08:22:36 AM 49.0453 2.9798 83° East 273 314 9,800 1,787 Climbing FlightAware ADS-B
Sat 08:23:08 AM 49.0507 3.0422 82° East 289 333 10,600 1,238 Climbing FlightAware ADS-B
Sat 08:23:39 AM 49.0554 3.1098 84° East 322 371 11,100 911 Climbing FlightAware ADS-B
Sat 08:24:27 AM 49.0690 3.2200 79° East 364 419 11,800 1,161 Climbing FlightAware ADS-B
Sat 08:24:41 AM 49.0744 3.2587 78° East 373 429 12,300 2,133 Climbing FlightAware ADS-B
Sat 08:25:12 AM 49.0860 3.3320 76° East 378 435 13,400 21,512 Climbing FlightAware ADS-B
Sat 08:25:22 AM 22.8320 112.7180 61° Northeast 512 589 27,000 1,714 Climbing FlightAware ADS-B
Sat 08:25:47 AM 49.1000 3.4300 322° Northwest 397 457 14,400 -533 Descending FlightAware ADS-B
Sat 08:26:07 AM 22.7550 112.7950 61° Northeast 510 587 26,600 2,133 Climbing FlightAware ADS-B
Sat 08:26:32 AM 49.1180 3.5520 322° Northwest 406 467 16,000  Descending FlightAware ADS-B
Sat 08:26:47 AM 22.6860 112.8630 61° Northeast 511 588 26,600 1,200 Climbing FlightAware ADS-B
Sat 08:27:17 AM 49.1360 3.6770 322° Northwest 430 495 16,900  Descending FlightAware ADS-B
Sat 08:27:27 AM 22.6170 112.9320 61° Northeast 511 588 26,600 1,950 Climbing FlightAware ADS-B
Sat 08:27:57 AM 49.1540 3.7970 322° Northwest 437 503 18,200 -667 Descending FlightAware ADS-B
Sat 08:28:12 AM 22.5380 113.0100 61° Northeast 508 585 26,100 2,000 Climbing FlightAware ADS-B
Sat 08:28:42 AM 49.1730 3.9340 322° Northwest 443 510 19,700 -1,200 Descending FlightAware ADS-B
Sat 08:28:52 AM 22.4660 113.0810 61° Northeast 503 579 25,300 1,950 Climbing FlightAware ADS-B
Sat 08:29:22 AM 49.1910 4.0600 322° Northwest 447 514 21,000 -1,733 Descending FlightAware ADS-B
Sat 08:29:37 AM 22.3940 113.1520 61° Northeast 492 566 24,000 1,200 Climbing FlightAware ADS-B
Sat 08:29:57 AM 49.2040 4.1490 322° Northwest 455 524 21,700 -2,100 Descending FlightAware ADS-B
Sat 08:30:17 AM 22.3250 113.2210 61° Northeast 476 548 22,600 1,440 Climbing FlightAware ADS-B
Sat 08:30:47 AM 49.2280 4.3190 322° Northwest 470 541 22,900 -514 Climbing FlightAware ADS-B
Sat 08:30:52 AM 22.2730 113.2730 62° Northeast 474 545 22,300 1,371 Descending FlightAware ADS-B
Sat 08:31:22 AM 49.2490 4.4200 322° Northwest 485 558 23,700  Climbing FlightAware ADS-B
Sat 08:31:42 AM 22.2050 113.3410 62° Northeast 474 545 22,300 1,600 Descending FlightAware ADS-B
Sat 08:32:07 AM 49.2840 4.5760 322° Northwest 489 563 24,900  Climbing FlightAware ADS-B
Sat 08:32:22 AM 22.1510 113.3960 62° Northeast 474 545 22,300 1,600 Descending FlightAware ADS-B
Sat 08:32:52 AM 49.3170 4.7280 322° Northwest 492 566 26,100  Climbing FlightAware ADS-B
Sat 08:33:02 AM 22.0960 113.4510 62° Northeast 474 545 22,300 -4,560 Descending FlightAware ADS-B
Sat 08:33:42 AM 22.0420 113.5060 137° Southeast 474 545 22,300 4,892 Level FlightAware ADS-B
Sat 08:34:07 AM 49.3690 4.9810 322° Northwest 507 583 27,600  Climbing FlightAware ADS-B
Sat 08:34:22 AM 21.9870 113.5610 62° Northeast 474 545 22,300 1,080 Descending FlightAware ADS-B
Sat 08:34:57 AM 49.4070 5.1660 322° Northwest 521 600 28,500 5,440 Climbing FlightAware ADS-B
Sat 08:35:37 AM 49.4360 5.3020 72° East 530 610 29,100 847 Climbing FlightAware ADS-B
Sat 08:36:22 AM 49.4690 5.4600 72° East 538 619 29,700 1,059 Climbing FlightAware ADS-B
Sat 08:37:02 AM 49.4990 5.6100 73° East 538 619 30,600 1,350 Climbing FlightAware ADS-B
Sat 08:37:42 AM 49.5280 5.7590 73° East 537 618 31,500 1,129 Climbing FlightAware ADS-B
Sat 08:38:27 AM 49.5570 5.9110 74° East 541 623 32,200 900 Climbing FlightAware ADS-B
Sat 08:39:02 AM 49.5840 6.0570 74° East 549 632 32,700 565 Climbing FlightAware ADS-B
Sat 08:39:52 AM 49.6150 6.2280 74° East 537 618 33,000 200 Climbing FlightAware ADS-B
Sat 08:40:32 AM 49.6610 6.3750 64° Northeast 542 624 33,000  Level FlightAware ADS-B
Sat 08:41:17 AM 49.7100 6.5230 63° Northeast 536 617 33,000  Level FlightAware ADS-B
Sat 08:41:57 AM 49.7580 6.6600 61° Northeast 539 620 33,000  Level FlightAware ADS-B
Sat 08:42:37 AM 49.8080 6.8010 61° Northeast 538 619 33,000  Level FlightAware ADS-B
Sat 08:43:22 AM 49.8600 6.9500 62° Northeast 530 610 33,000  Level FlightAware ADS-B
Sat 08:44:07 AM 49.9110 7.1000 62° Northeast 529 609 33,000  Level FlightAware ADS-B
Sat 08:44:47 AM 49.9590 7.2410 62° Northeast 523 602 33,000  Level FlightAware ADS-B
Sat 08:45:32 AM 50.0100 7.3900 62° Northeast 523 602 33,000  Level FlightAware ADS-B
Sat 08:46:07 AM 50.0490 7.5050 62° Northeast 522 601 33,000  Level FlightAware ADS-B
Sat 08:46:52 AM 50.1000 7.6560 62° Northeast 522 601 33,000  Level FlightAware ADS-B
Sat 08:47:37 AM 50.1470 7.7960 62° Northeast 522 601 33,000  Level FlightAware ADS-B
Sat 08:48:17 AM 50.1940 7.9360 62° Northeast 522 601 33,000  Level FlightAware ADS-B
Sat 08:49:02 AM 50.2430 8.0850 63° Northeast 521 600 33,000  Level FlightAware ADS-B
Sat 08:49:42 AM 50.2880 8.2210 63° Northeast 517 595 33,000  Level FlightAware ADS-B
Sat 08:50:22 AM 50.3310 8.3510 63° Northeast 515 593 33,000 -35,673 Level FlightAware ADS-B
Sat 08:50:37 AM 22.3080 113.8890 64° Northeast 123 142 300  Descending FlightAware ADS-B
Sat 08:51:07 AM 50.3810 8.5050 322° Northwest 513 590 33,000 28,029 Climbing FlightAware ADS-B
Sat 08:51:47 AM 50.4240 8.6380 322° Northwest 514 592 33,000 75 Level FlightAware ADS-B
Sat 08:52:27 AM 50.4670 8.7710 322° Northwest 515 593 33,100 424 Climbing FlightAware ADS-B
Sat 08:53:12 AM 50.5150 8.9210 322° Northwest 522 601 33,600 667 Climbing FlightAware ADS-B

Login

Don't have an account? Register now (free) for customized features, flight alerts, and more!